sensor_id;sensor_type;location;lat;lon;timestamp;temperature;humidity
27188;DHT22;14708;50.872;5.306;2023-10-13T00:02:08;24.10;63.90
27188;DHT22;14708;50.872;5.306;2023-10-13T00:04:34;24.00;63.80
27188;DHT22;14708;50.872;5.306;2023-10-13T00:07:03;24.00;63.50
27188;DHT22;14708;50.872;5.306;2023-10-13T00:09:30;24.00;63.90
27188;DHT22;14708;50.872;5.306;2023-10-13T00:11:59;24.00;63.80
27188;DHT22;14708;50.872;5.306;2023-10-13T00:14:25;24.00;63.90
27188;DHT22;14708;50.872;5.306;2023-10-13T00:17:01;24.00;63.80
27188;DHT22;14708;50.872;5.306;2023-10-13T00:19:35;24.00;63.80
27188;DHT22;14708;50.872;5.306;2023-10-13T00:22:08;24.00;63.80
27188;DHT22;14708;50.872;5.306;2023-10-13T00:24:53;24.00;63.90
27188;DHT22;14708;50.872;5.306;2023-10-13T00:27:24;24.00;63.90
27188;DHT22;14708;50.872;5.306;2023-10-13T00:30:04;23.90;63.70
27188;DHT22;14708;50.872;5.306;2023-10-13T00:33:00;23.90;63.80
27188;DHT22;14708;50.872;5.306;2023-10-13T00:35:28;23.90;63.90
27188;DHT22;14708;50.872;5.306;2023-10-13T00:37:57;23.90;63.80
27188;DHT22;14708;50.872;5.306;2023-10-13T00:40:29;23.90;63.90
27188;DHT22;14708;50.872;5.306;2023-10-13T00:42:55;23.90;63.80
27188;DHT22;14708;50.872;5.306;2023-10-13T00:45:33;23.90;63.90
27188;DHT22;14708;50.872;5.306;2023-10-13T00:47:59;23.90;63.90
27188;DHT22;14708;50.872;5.306;2023-10-13T00:50:27;23.80;63.70
27188;DHT22;14708;50.872;5.306;2023-10-13T00:52:55;23.80;64.00
27188;DHT22;14708;50.872;5.306;2023-10-13T00:55:21;23.80;63.80
27188;DHT22;14708;50.872;5.306;2023-10-13T00:57:59;23.80;64.20
27188;DHT22;14708;50.872;5.306;2023-10-13T01:00:29;23.80;64.10
27188;DHT22;14708;50.872;5.306;2023-10-13T01:02:56;23.80;64.20
27188;DHT22;14708;50.872;5.306;2023-10-13T01:05:25;23.80;64.10
27188;DHT22;14708;50.872;5.306;2023-10-13T01:07:51;23.80;64.10
27188;DHT22;14708;50.872;5.306;2023-10-13T01:10:23;23.80;64.20
27188;DHT22;14708;50.872;5.306;2023-10-13T01:12:53;23.80;64.10
27188;DHT22;14708;50.872;5.306;2023-10-13T01:15:19;23.80;64.20
27188;DHT22;14708;50.872;5.306;2023-10-13T01:17:48;23.80;64.20
27188;DHT22;14708;50.872;5.306;2023-10-13T01:20:16;23.80;64.10
27188;DHT22;14708;50.872;5.306;2023-10-13T01:23:07;23.80;64.10
27188;DHT22;14708;50.872;5.306;2023-10-13T01:25:36;23.70;64.10
27188;DHT22;14708;50.872;5.306;2023-10-13T01:28:01;23.70;64.10
27188;DHT22;14708;50.872;5.306;2023-10-13T01:30:27;23.70;64.20
27188;DHT22;14708;50.872;5.306;2023-10-13T01:32:53;23.70;64.20
27188;DHT22;14708;50.872;5.306;2023-10-13T01:35:25;23.70;64.00
27188;DHT22;14708;50.872;5.306;2023-10-13T01:38:00;23.70;64.10
27188;DHT22;14708;50.872;5.306;2023-10-13T01:40:26;23.70;64.10
27188;DHT22;14708;50.872;5.306;2023-10-13T01:42:54;23.70;64.20
27188;DHT22;14708;50.872;5.306;2023-10-13T01:45:21;23.70;64.20
27188;DHT22;14708;50.872;5.306;2023-10-13T01:47:47;23.70;64.30
27188;DHT22;14708;50.872;5.306;2023-10-13T01:50:16;23.70;64.20
27188;DHT22;14708;50.872;5.306;2023-10-13T01:52:47;23.70;64.30
27188;DHT22;14708;50.872;5.306;2023-10-13T01:55:13;23.70;64.20
27188;DHT22;14708;50.872;5.306;2023-10-13T01:57:39;23.70;64.10
27188;DHT22;14708;50.872;5.306;2023-10-13T02:00:09;23.70;64.30
27188;DHT22;14708;50.872;5.306;2023-10-13T02:02:45;23.60;64.20
27188;DHT22;14708;50.872;5.306;2023-10-13T02:05:15;23.60;64.20
27188;DHT22;14708;50.872;5.306;2023-10-13T02:07:42;23.60;64.00
27188;DHT22;14708;50.872;5.306;2023-10-13T02:10:11;23.60;64.00
27188;DHT22;14708;50.872;5.306;2023-10-13T02:12:38;23.60;64.20
27188;DHT22;14708;50.872;5.306;2023-10-13T02:15:13;23.60;64.20
27188;DHT22;14708;50.872;5.306;2023-10-13T02:17:52;23.60;64.10
27188;DHT22;14708;50.872;5.306;2023-10-13T02:20:20;23.60;64.10
27188;DHT22;14708;50.872;5.306;2023-10-13T02:22:49;23.60;64.10
27188;DHT22;14708;50.872;5.306;2023-10-13T02:25:16;23.60;64.20
27188;DHT22;14708;50.872;5.306;2023-10-13T02:28:02;23.60;64.10
27188;DHT22;14708;50.872;5.306;2023-10-13T02:30:28;23.60;64.10
27188;DHT22;14708;50.872;5.306;2023-10-13T02:32:54;23.60;64.20
27188;DHT22;14708;50.872;5.306;2023-10-13T02:35:28;23.60;64.20
27188;DHT22;14708;50.872;5.306;2023-10-13T02:38:07;23.60;64.30
27188;DHT22;14708;50.872;5.306;2023-10-13T02:40:40;23.60;64.20
27188;DHT22;14708;50.872;5.306;2023-10-13T02:43:05;23.60;64.10
27188;DHT22;14708;50.872;5.306;2023-10-13T02:45:32;23.60;64.20
27188;DHT22;14708;50.872;5.306;2023-10-13T02:48:01;23.50;64.20
27188;DHT22;14708;50.872;5.306;2023-10-13T02:50:40;23.50;64.20
27188;DHT22;14708;50.872;5.306;2023-10-13T02:53:18;23.50;64.20
27188;DHT22;14708;50.872;5.306;2023-10-13T02:55:51;23.50;64.00
27188;DHT22;14708;50.872;5.306;2023-10-13T02:58:17;23.60;64.10
27188;DHT22;14708;50.872;5.306;2023-10-13T03:00:43;23.50;63.90
27188;DHT22;14708;50.872;5.306;2023-10-13T03:03:09;23.50;64.10
27188;DHT22;14708;50.872;5.306;2023-10-13T03:05:35;23.50;64.20
27188;DHT22;14708;50.872;5.306;2023-10-13T03:08:05;23.50;64.20
27188;DHT22;14708;50.872;5.306;2023-10-13T03:10:31;23.50;64.10
27188;DHT22;14708;50.872;5.306;2023-10-13T03:12:57;23.50;64.20
27188;DHT22;14708;50.872;5.306;2023-10-13T03:15:23;23.50;64.10
27188;DHT22;14708;50.872;5.306;2023-10-13T03:17:56;23.50;64.30
27188;DHT22;14708;50.872;5.306;2023-10-13T03:20:24;23.50;64.30
27188;DHT22;14708;50.872;5.306;2023-10-13T03:22:56;23.50;64.20
27188;DHT22;14708;50.872;5.306;2023-10-13T03:25:21;23.50;64.20
27188;DHT22;14708;50.872;5.306;2023-10-13T03:28:07;23.50;64.20
27188;DHT22;14708;50.872;5.306;2023-10-13T03:30:37;23.50;64.10
27188;DHT22;14708;50.872;5.306;2023-10-13T03:33:07;23.50;63.90
27188;DHT22;14708;50.872;5.306;2023-10-13T03:35:36;23.50;63.90
27188;DHT22;14708;50.872;5.306;2023-10-13T03:38:07;23.40;64.10
27188;DHT22;14708;50.872;5.306;2023-10-13T03:40:42;23.40;64.20
27188;DHT22;14708;50.872;5.306;2023-10-13T03:43:14;23.40;64.20
27188;DHT22;14708;50.872;5.306;2023-10-13T03:45:43;23.40;64.20
27188;DHT22;14708;50.872;5.306;2023-10-13T03:48:14;23.40;64.00
27188;DHT22;14708;50.872;5.306;2023-10-13T03:50:53;23.40;64.10
27188;DHT22;14708;50.872;5.306;2023-10-13T03:53:41;23.40;64.00
27188;DHT22;14708;50.872;5.306;2023-10-13T03:56:29;23.40;64.10
27188;DHT22;14708;50.872;5.306;2023-10-13T03:59:07;23.40;64.10
27188;DHT22;14708;50.872;5.306;2023-10-13T04:01:44;23.40;64.20
27188;DHT22;14708;50.872;5.306;2023-10-13T04:04:16;23.40;63.90
27188;DHT22;14708;50.872;5.306;2023-10-13T04:07:01;23.40;64.00
27188;DHT22;14708;50.872;5.306;2023-10-13T04:09:35;23.40;63.80
27188;DHT22;14708;50.872;5.306;2023-10-13T04:12:13;23.40;64.00
27188;DHT22;14708;50.872;5.306;2023-10-13T04:14:44;23.40;64.70
27188;DHT22;14708;50.872;5.306;2023-10-13T04:17:19;23.40;64.00
27188;DHT22;14708;50.872;5.306;2023-10-13T04:19:49;23.40;64.00
27188;DHT22;14708;50.872;5.306;2023-10-13T04:22:37;23.40;64.00
27188;DHT22;14708;50.872;5.306;2023-10-13T04:25:26;23.40;64.10
27188;DHT22;14708;50.872;5.306;2023-10-13T04:27:58;23.40;64.00
27188;DHT22;14708;50.872;5.306;2023-10-13T04:30:47;23.40;64.00
27188;DHT22;14708;50.872;5.306;2023-10-13T04:33:22;23.40;64.10
27188;DHT22;14708;50.872;5.306;2023-10-13T04:36:08;23.40;64.00
27188;DHT22;14708;50.872;5.306;2023-10-13T04:38:54;23.40;64.20
27188;DHT22;14708;50.872;5.306;2023-10-13T04:41:41;23.40;64.00
27188;DHT22;14708;50.872;5.306;2023-10-13T04:44:16;23.40;64.00
27188;DHT22;14708;50.872;5.306;2023-10-13T04:47:01;23.40;64.10
27188;DHT22;14708;50.872;5.306;2023-10-13T04:49:31;23.40;64.20
27188;DHT22;14708;50.872;5.306;2023-10-13T04:52:09;23.40;64.20
27188;DHT22;14708;50.872;5.306;2023-10-13T04:54:40;23.40;64.00
27188;DHT22;14708;50.872;5.306;2023-10-13T04:57:16;23.40;64.20
27188;DHT22;14708;50.872;5.306;2023-10-13T04:59:49;23.40;64.10
27188;DHT22;14708;50.872;5.306;2023-10-13T05:02:34;23.40;64.20
27188;DHT22;14708;50.872;5.306;2023-10-13T05:05:08;23.40;64.20
27188;DHT22;14708;50.872;5.306;2023-10-13T05:07:44;23.40;64.00
27188;DHT22;14708;50.872;5.306;2023-10-13T05:10:29;23.40;64.10
27188;DHT22;14708;50.872;5.306;2023-10-13T05:13:13;23.40;64.10
27188;DHT22;14708;50.872;5.306;2023-10-13T05:15:57;23.30;64.00
27188;DHT22;14708;50.872;5.306;2023-10-13T05:18:42;23.30;63.90
27188;DHT22;14708;50.872;5.306;2023-10-13T05:21:26;23.30;64.00
27188;DHT22;14708;50.872;5.306;2023-10-13T05:24:10;23.40;64.10
27188;DHT22;14708;50.872;5.306;2023-10-13T05:26:55;23.30;64.10
27188;DHT22;14708;50.872;5.306;2023-10-13T05:29:43;23.30;64.10
27188;DHT22;14708;50.872;5.306;2023-10-13T05:32:27;23.30;64.00
27188;DHT22;14708;50.872;5.306;2023-10-13T05:35:13;23.30;65.10
27188;DHT22;14708;50.872;5.306;2023-10-13T05:37:58;23.30;64.10
27188;DHT22;14708;50.872;5.306;2023-10-13T05:40:52;23.30;64.00
27188;DHT22;14708;50.872;5.306;2023-10-13T05:43:37;23.30;64.00
27188;DHT22;14708;50.872;5.306;2023-10-13T05:46:21;23.30;64.20
27188;DHT22;14708;50.872;5.306;2023-10-13T05:48:53;23.30;64.00
27188;DHT22;14708;50.872;5.306;2023-10-13T05:51:29;23.30;64.10
27188;DHT22;14708;50.872;5.306;2023-10-13T05:53:59;23.30;64.10
27188;DHT22;14708;50.872;5.306;2023-10-13T05:56:40;23.30;64.00
27188;DHT22;14708;50.872;5.306;2023-10-13T05:59:34;23.30;64.00
27188;DHT22;14708;50.872;5.306;2023-10-13T06:02:20;23.30;64.00
27188;DHT22;14708;50.872;5.306;2023-10-13T06:05:06;23.30;63.90
27188;DHT22;14708;50.872;5.306;2023-10-13T06:07:51;23.30;64.00
27188;DHT22;14708;50.872;5.306;2023-10-13T06:10:36;23.30;64.10
27188;DHT22;14708;50.872;5.306;2023-10-13T06:13:21;23.30;63.90
27188;DHT22;14708;50.872;5.306;2023-10-13T06:16:28;23.30;64.10
27188;DHT22;14708;50.872;5.306;2023-10-13T06:19:12;23.30;64.00
27188;DHT22;14708;50.872;5.306;2023-10-13T06:21:56;23.30;64.10
27188;DHT22;14708;50.872;5.306;2023-10-13T06:24:43;23.30;64.00
27188;DHT22;14708;50.872;5.306;2023-10-13T06:27:28;23.30;64.00
27188;DHT22;14708;50.872;5.306;2023-10-13T06:30:12;23.30;63.60
27188;DHT22;14708;50.872;5.306;2023-10-13T06:32:38;23.30;63.60
27188;DHT22;14708;50.872;5.306;2023-10-13T06:35:05;23.30;63.60
27188;DHT22;14708;50.872;5.306;2023-10-13T06:37:40;23.40;63.60
27188;DHT22;14708;50.872;5.306;2023-10-13T06:40:11;23.40;62.90
27188;DHT22;14708;50.872;5.306;2023-10-13T06:42:56;23.40;63.20
27188;DHT22;14708;50.872;5.306;2023-10-13T06:45:37;23.40;63.50
27188;DHT22;14708;50.872;5.306;2023-10-13T06:48:03;23.40;63.50
27188;DHT22;14708;50.872;5.306;2023-10-13T06:50:30;23.40;63.80
27188;DHT22;14708;50.872;5.306;2023-10-13T06:53:04;23.30;64.40
27188;DHT22;14708;50.872;5.306;2023-10-13T06:55:30;23.40;64.50
27188;DHT22;14708;50.872;5.306;2023-10-13T06:58:08;23.40;64.90
27188;DHT22;14708;50.872;5.306;2023-10-13T07:00:41;23.40;64.60
27188;DHT22;14708;50.872;5.306;2023-10-13T07:03:24;23.40;64.80
27188;DHT22;14708;50.872;5.306;2023-10-13T07:05:50;23.40;65.10
27188;DHT22;14708;50.872;5.306;2023-10-13T07:08:17;23.40;65.20
27188;DHT22;14708;50.872;5.306;2023-10-13T07:10:53;23.40;65.20
27188;DHT22;14708;50.872;5.306;2023-10-13T07:13:32;23.40;64.90
27188;DHT22;14708;50.872;5.306;2023-10-13T07:16:03;23.40;65.00
27188;DHT22;14708;50.872;5.306;2023-10-13T07:18:38;23.40;65.30
27188;DHT22;14708;50.872;5.306;2023-10-13T07:21:15;23.40;65.30
27188;DHT22;14708;50.872;5.306;2023-10-13T07:23:41;23.40;65.30
27188;DHT22;14708;50.872;5.306;2023-10-13T07:26:26;23.40;65.30
27188;DHT22;14708;50.872;5.306;2023-10-13T07:28:52;23.40;65.30
27188;DHT22;14708;50.872;5.306;2023-10-13T07:31:25;23.40;65.30
27188;DHT22;14708;50.872;5.306;2023-10-13T07:33:52;23.40;65.40
27188;DHT22;14708;50.872;5.306;2023-10-13T07:36:21;23.40;65.30
27188;DHT22;14708;50.872;5.306;2023-10-13T07:38:58;23.40;65.00
27188;DHT22;14708;50.872;5.306;2023-10-13T07:41:47;23.40;65.20
27188;DHT22;14708;50.872;5.306;2023-10-13T07:44:19;23.40;65.30
27188;DHT22;14708;50.872;5.306;2023-10-13T07:46:50;23.40;65.30
27188;DHT22;14708;50.872;5.306;2023-10-13T07:49:29;23.40;65.20
27188;DHT22;14708;50.872;5.306;2023-10-13T07:52:00;23.40;65.00
27188;DHT22;14708;50.872;5.306;2023-10-13T07:54:45;23.40;65.10
27188;DHT22;14708;50.872;5.306;2023-10-13T07:57:30;23.40;65.20
27188;DHT22;14708;50.872;5.306;2023-10-13T07:59:56;23.40;65.00
27188;DHT22;14708;50.872;5.306;2023-10-13T08:02:33;23.40;65.10
27188;DHT22;14708;50.872;5.306;2023-10-13T08:05:15;23.50;65.20
27188;DHT22;14708;50.872;5.306;2023-10-13T08:07:54;23.40;65.20
27188;DHT22;14708;50.872;5.306;2023-10-13T08:10:22;23.50;65.40
27188;DHT22;14708;50.872;5.306;2023-10-13T08:12:56;23.50;65.50
27188;DHT22;14708;50.872;5.306;2023-10-13T08:15:24;23.50;65.30
27188;DHT22;14708;50.872;5.306;2023-10-13T08:17:59;23.50;65.70
27188;DHT22;14708;50.872;5.306;2023-10-13T08:20:30;23.50;65.60
27188;DHT22;14708;50.872;5.306;2023-10-13T08:23:02;23.50;65.60
27188;DHT22;14708;50.872;5.306;2023-10-13T08:25:42;23.50;65.00
27188;DHT22;14708;50.872;5.306;2023-10-13T08:28:26;23.50;65.30
27188;DHT22;14708;50.872;5.306;2023-10-13T08:31:07;23.50;65.10
27188;DHT22;14708;50.872;5.306;2023-10-13T08:33:48;23.50;65.30
27188;DHT22;14708;50.872;5.306;2023-10-13T08:36:14;23.50;65.30
27188;DHT22;14708;50.872;5.306;2023-10-13T08:38:58;23.50;65.20
27188;DHT22;14708;50.872;5.306;2023-10-13T08:41:41;23.50;65.30
27188;DHT22;14708;50.872;5.306;2023-10-13T08:44:25;23.50;65.20
27188;DHT22;14708;50.872;5.306;2023-10-13T08:47:03;23.50;65.00
27188;DHT22;14708;50.872;5.306;2023-10-13T08:49:32;23.50;64.70
27188;DHT22;14708;50.872;5.306;2023-10-13T08:52:09;23.50;65.00
27188;DHT22;14708;50.872;5.306;2023-10-13T08:54:56;23.50;65.00
27188;DHT22;14708;50.872;5.306;2023-10-13T08:58:00;23.50;65.10
27188;DHT22;14708;50.872;5.306;2023-10-13T09:00:41;23.50;65.10
27188;DHT22;14708;50.872;5.306;2023-10-13T09:03:21;23.60;65.00
27188;DHT22;14708;50.872;5.306;2023-10-13T09:06:04;23.50;65.10
27188;DHT22;14708;50.872;5.306;2023-10-13T09:08:32;23.50;65.00
27188;DHT22;14708;50.872;5.306;2023-10-13T09:11:32;23.60;65.70
27188;DHT22;14708;50.872;5.306;2023-10-13T09:14:02;23.60;65.20
27188;DHT22;14708;50.872;5.306;2023-10-13T09:16:29;23.50;65.40
27188;DHT22;14708;50.872;5.306;2023-10-13T09:19:06;23.50;65.40
27188;DHT22;14708;50.872;5.306;2023-10-13T09:21:39;23.60;65.50
27188;DHT22;14708;50.872;5.306;2023-10-13T09:24:12;23.60;65.90
27188;DHT22;14708;50.872;5.306;2023-10-13T09:26:48;23.60;65.80
27188;DHT22;14708;50.872;5.306;2023-10-13T09:29:19;23.60;66.10
27188;DHT22;14708;50.872;5.306;2023-10-13T09:31:46;23.60;66.00
27188;DHT22;14708;50.872;5.306;2023-10-13T09:34:22;23.60;66.50
27188;DHT22;14708;50.872;5.306;2023-10-13T09:36:50;23.60;66.50
27188;DHT22;14708;50.872;5.306;2023-10-13T09:39:24;23.60;64.80
27188;DHT22;14708;50.872;5.306;2023-10-13T09:42:16;23.60;64.80
27188;DHT22;14708;50.872;5.306;2023-10-13T09:44:44;23.70;65.40
27188;DHT22;14708;50.872;5.306;2023-10-13T09:47:20;23.70;65.70
27188;DHT22;14708;50.872;5.306;2023-10-13T09:49:51;23.70;65.60
27188;DHT22;14708;50.872;5.306;2023-10-13T09:52:23;23.70;65.20
27188;DHT22;14708;50.872;5.306;2023-10-13T09:57:36;23.70;65.30
27188;DHT22;14708;50.872;5.306;2023-10-13T10:00:15;23.70;65.20
27188;DHT22;14708;50.872;5.306;2023-10-13T10:02:55;23.70;65.40
27188;DHT22;14708;50.872;5.306;2023-10-13T10:05:28;23.70;65.40
27188;DHT22;14708;50.872;5.306;2023-10-13T10:07:59;23.70;65.50
27188;DHT22;14708;50.872;5.306;2023-10-13T10:10:45;23.70;65.60
27188;DHT22;14708;50.872;5.306;2023-10-13T10:14:19;23.70;65.70
27188;DHT22;14708;50.872;5.306;2023-10-13T10:19:25;23.70;65.90
27188;DHT22;14708;50.872;5.306;2023-10-13T10:22:01;23.70;65.80
27188;DHT22;14708;50.872;5.306;2023-10-13T10:24:44;23.70;65.70
27188;DHT22;14708;50.872;5.306;2023-10-13T10:27:12;23.70;65.70
27188;DHT22;14708;50.872;5.306;2023-10-13T10:29:53;23.70;65.90
27188;DHT22;14708;50.872;5.306;2023-10-13T10:32:19;23.70;66.00
27188;DHT22;14708;50.872;5.306;2023-10-13T10:34:45;23.70;70.70
27188;DHT22;14708;50.872;5.306;2023-10-13T10:37:12;23.70;70.30
27188;DHT22;14708;50.872;5.306;2023-10-13T10:39:38;23.70;69.80
27188;DHT22;14708;50.872;5.306;2023-10-13T10:42:15;23.70;71.00
27188;DHT22;14708;50.872;5.306;2023-10-13T10:44:44;23.70;73.30
27188;DHT22;14708;50.872;5.306;2023-10-13T10:47:14;23.70;71.80
27188;DHT22;14708;50.872;5.306;2023-10-13T10:50:02;23.70;72.70
27188;DHT22;14708;50.872;5.306;2023-10-13T10:52:45;23.70;71.80
27188;DHT22;14708;50.872;5.306;2023-10-13T10:55:12;23.70;71.10
27188;DHT22;14708;50.872;5.306;2023-10-13T10:57:40;23.70;69.80
27188;DHT22;14708;50.872;5.306;2023-10-13T11:00:19;23.70;68.20
27188;DHT22;14708;50.872;5.306;2023-10-13T11:03:03;23.70;67.10
27188;DHT22;14708;50.872;5.306;2023-10-13T11:05:30;23.70;66.50
27188;DHT22;14708;50.872;5.306;2023-10-13T11:07:59;23.70;66.30
27188;DHT22;14708;50.872;5.306;2023-10-13T11:10:24;23.70;65.80
27188;DHT22;14708;50.872;5.306;2023-10-13T11:12:57;23.70;65.70
27188;DHT22;14708;50.872;5.306;2023-10-13T11:15:43;23.70;65.60
27188;DHT22;14708;50.872;5.306;2023-10-13T11:18:12;23.70;65.30
27188;DHT22;14708;50.872;5.306;2023-10-13T11:20:48;23.70;65.10
27188;DHT22;14708;50.872;5.306;2023-10-13T11:23:20;23.70;64.80
27188;DHT22;14708;50.872;5.306;2023-10-13T11:25:59;23.70;64.80
27188;DHT22;14708;50.872;5.306;2023-10-13T11:28:25;23.70;64.60
27188;DHT22;14708;50.872;5.306;2023-10-13T11:30:54;23.70;64.20
27188;DHT22;14708;50.872;5.306;2023-10-13T11:33:46;23.70;63.70
27188;DHT22;14708;50.872;5.306;2023-10-13T11:36:12;23.70;63.80
27188;DHT22;14708;50.872;5.306;2023-10-13T11:38:48;23.70;63.50
27188;DHT22;14708;50.872;5.306;2023-10-13T11:41:13;23.70;63.50
27188;DHT22;14708;50.872;5.306;2023-10-13T11:43:45;23.70;63.30
27188;DHT22;14708;50.872;5.306;2023-10-13T11:46:14;23.70;63.60
27188;DHT22;14708;50.872;5.306;2023-10-13T11:48:56;23.70;63.50
27188;DHT22;14708;50.872;5.306;2023-10-13T11:51:30;23.70;63.40
27188;DHT22;14708;50.872;5.306;2023-10-13T11:54:00;23.70;63.10
27188;DHT22;14708;50.872;5.306;2023-10-13T11:56:26;23.70;62.60
27188;DHT22;14708;50.872;5.306;2023-10-13T11:58:51;23.70;62.50
27188;DHT22;14708;50.872;5.306;2023-10-13T12:01:17;23.70;62.60
27188;DHT22;14708;50.872;5.306;2023-10-13T12:03:45;23.70;62.30
27188;DHT22;14708;50.872;5.306;2023-10-13T12:06:33;23.70;62.30
27188;DHT22;14708;50.872;5.306;2023-10-13T12:09:03;23.70;61.60
27188;DHT22;14708;50.872;5.306;2023-10-13T12:11:47;23.70;61.30
27188;DHT22;14708;50.872;5.306;2023-10-13T12:14:16;23.70;61.10
27188;DHT22;14708;50.872;5.306;2023-10-13T12:16:49;23.70;61.10
27188;DHT22;14708;50.872;5.306;2023-10-13T12:19:17;23.70;61.10
27188;DHT22;14708;50.872;5.306;2023-10-13T12:21:43;23.70;61.00
27188;DHT22;14708;50.872;5.306;2023-10-13T12:24:10;23.70;61.00
27188;DHT22;14708;50.872;5.306;2023-10-13T12:26:57;23.70;61.00
27188;DHT22;14708;50.872;5.306;2023-10-13T12:29:23;23.70;60.90
27188;DHT22;14708;50.872;5.306;2023-10-13T12:31:57;23.70;60.90
27188;DHT22;14708;50.872;5.306;2023-10-13T12:34:37;23.70;60.80
27188;DHT22;14708;50.872;5.306;2023-10-13T12:37:32;23.70;60.70
27188;DHT22;14708;50.872;5.306;2023-10-13T12:40:14;23.70;60.80
27188;DHT22;14708;50.872;5.306;2023-10-13T12:42:59;23.70;60.60
27188;DHT22;14708;50.872;5.306;2023-10-13T12:45:45;23.70;60.80
27188;DHT22;14708;50.872;5.306;2023-10-13T12:48:31;23.70;61.00
27188;DHT22;14708;50.872;5.306;2023-10-13T12:51:16;23.70;60.90
27188;DHT22;14708;50.872;5.306;2023-10-13T12:53:49;23.70;60.70
27188;DHT22;14708;50.872;5.306;2023-10-13T12:56:15;23.70;60.70
27188;DHT22;14708;50.872;5.306;2023-10-13T12:58:59;23.70;60.40
27188;DHT22;14708;50.872;5.306;2023-10-13T13:01:25;23.70;60.40
27188;DHT22;14708;50.872;5.306;2023-10-13T13:03:58;23.70;60.30
27188;DHT22;14708;50.872;5.306;2023-10-13T13:06:25;23.70;60.20
27188;DHT22;14708;50.872;5.306;2023-10-13T13:08:58;23.70;59.90
27188;DHT22;14708;50.872;5.306;2023-10-13T13:11:24;23.70;60.10
27188;DHT22;14708;50.872;5.306;2023-10-13T13:13:50;23.70;60.20
27188;DHT22;14708;50.872;5.306;2023-10-13T13:16:17;23.70;60.00
27188;DHT22;14708;50.872;5.306;2023-10-13T13:19:01;23.70;59.90
27188;DHT22;14708;50.872;5.306;2023-10-13T13:21:38;23.70;60.00
27188;DHT22;14708;50.872;5.306;2023-10-13T13:24:04;23.70;60.00
27188;DHT22;14708;50.872;5.306;2023-10-13T13:26:36;23.70;60.10
27188;DHT22;14708;50.872;5.306;2023-10-13T13:29:06;23.70;59.90
27188;DHT22;14708;50.872;5.306;2023-10-13T13:31:34;23.70;59.90
27188;DHT22;14708;50.872;5.306;2023-10-13T13:34:09;23.70;59.90
27188;DHT22;14708;50.872;5.306;2023-10-13T13:36:35;23.70;60.00
27188;DHT22;14708;50.872;5.306;2023-10-13T13:39:01;23.70;60.10
27188;DHT22;14708;50.872;5.306;2023-10-13T13:41:30;23.70;60.30
27188;DHT22;14708;50.872;5.306;2023-10-13T13:43:58;23.70;60.80
27188;DHT22;14708;50.872;5.306;2023-10-13T13:46:39;23.70;61.10
27188;DHT22;14708;50.872;5.306;2023-10-13T13:49:07;23.70;61.30
27188;DHT22;14708;50.872;5.306;2023-10-13T13:51:39;23.70;61.40
27188;DHT22;14708;50.872;5.306;2023-10-13T13:54:05;23.70;61.60
27188;DHT22;14708;50.872;5.306;2023-10-13T13:56:32;23.70;61.70
27188;DHT22;14708;50.872;5.306;2023-10-13T13:59:03;23.70;61.70
27188;DHT22;14708;50.872;5.306;2023-10-13T14:01:36;23.70;62.10
27188;DHT22;14708;50.872;5.306;2023-10-13T14:04:10;23.70;62.40
27188;DHT22;14708;50.872;5.306;2023-10-13T14:06:36;23.80;62.50
27188;DHT22;14708;50.872;5.306;2023-10-13T14:09:04;23.80;62.50
27188;DHT22;14708;50.872;5.306;2023-10-13T14:11:40;23.70;62.20
27188;DHT22;14708;50.872;5.306;2023-10-13T14:14:07;23.70;62.50
27188;DHT22;14708;50.872;5.306;2023-10-13T14:16:43;23.80;61.70
27188;DHT22;14708;50.872;5.306;2023-10-13T14:19:13;23.80;62.60
27188;DHT22;14708;50.872;5.306;2023-10-13T14:21:55;23.70;62.40
27188;DHT22;14708;50.872;5.306;2023-10-13T14:24:22;23.80;62.80
27188;DHT22;14708;50.872;5.306;2023-10-13T14:27:00;23.80;62.90
27188;DHT22;14708;50.872;5.306;2023-10-13T14:29:43;23.70;62.80
27188;DHT22;14708;50.872;5.306;2023-10-13T14:32:09;23.80;63.10
27188;DHT22;14708;50.872;5.306;2023-10-13T14:34:38;23.80;63.30
27188;DHT22;14708;50.872;5.306;2023-10-13T14:37:04;23.80;63.50
27188;DHT22;14708;50.872;5.306;2023-10-13T14:39:30;23.70;63.70
27188;DHT22;14708;50.872;5.306;2023-10-13T14:41:59;23.80;63.70
27188;DHT22;14708;50.872;5.306;2023-10-13T14:44:25;23.70;63.70
27188;DHT22;14708;50.872;5.306;2023-10-13T14:46:52;23.80;63.90
27188;DHT22;14708;50.872;5.306;2023-10-13T14:49:21;23.80;63.90
27188;DHT22;14708;50.872;5.306;2023-10-13T14:51:46;23.80;63.90
27188;DHT22;14708;50.872;5.306;2023-10-13T14:54:12;23.80;64.20
27188;DHT22;14708;50.872;5.306;2023-10-13T14:56:40;23.80;64.00
27188;DHT22;14708;50.872;5.306;2023-10-13T14:59:10;23.80;64.00
27188;DHT22;14708;50.872;5.306;2023-10-13T15:01:43;23.80;64.20
27188;DHT22;14708;50.872;5.306;2023-10-13T15:04:09;23.80;63.80
27188;DHT22;14708;50.872;5.306;2023-10-13T15:06:34;23.80;64.10
27188;DHT22;14708;50.872;5.306;2023-10-13T15:09:01;23.80;64.20
27188;DHT22;14708;50.872;5.306;2023-10-13T15:11:28;23.80;64.30
27188;DHT22;14708;50.872;5.306;2023-10-13T15:14:05;23.80;64.00
27188;DHT22;14708;50.872;5.306;2023-10-13T15:16:34;23.80;64.20
27188;DHT22;14708;50.872;5.306;2023-10-13T15:19:00;23.80;64.20
27188;DHT22;14708;50.872;5.306;2023-10-13T15:21:29;23.80;64.20
27188;DHT22;14708;50.872;5.306;2023-10-13T15:24:00;23.80;64.10
27188;DHT22;14708;50.872;5.306;2023-10-13T15:26:30;23.80;64.20
27188;DHT22;14708;50.872;5.306;2023-10-13T15:28:57;23.80;64.30
27188;DHT22;14708;50.872;5.306;2023-10-13T15:31:23;23.80;64.50
27188;DHT22;14708;50.872;5.306;2023-10-13T15:33:53;23.80;64.40
27188;DHT22;14708;50.872;5.306;2023-10-13T15:36:23;23.90;64.30
27188;DHT22;14708;50.872;5.306;2023-10-13T15:38:58;23.90;64.30
27188;DHT22;14708;50.872;5.306;2023-10-13T15:41:25;23.90;65.20
27188;DHT22;14708;50.872;5.306;2023-10-13T15:43:51;23.90;64.30
27188;DHT22;14708;50.872;5.306;2023-10-13T15:46:19;23.90;64.30
27188;DHT22;14708;50.872;5.306;2023-10-13T15:48:49;23.90;64.30
27188;DHT22;14708;50.872;5.306;2023-10-13T15:51:15;24.00;64.40
27188;DHT22;14708;50.872;5.306;2023-10-13T15:53:44;24.00;64.30
27188;DHT22;14708;50.872;5.306;2023-10-13T15:56:13;24.00;63.40
27188;DHT22;14708;50.872;5.306;2023-10-13T15:58:40;24.00;62.40
27188;DHT22;14708;50.872;5.306;2023-10-13T16:01:09;24.00;62.40
27188;DHT22;14708;50.872;5.306;2023-10-13T16:03:41;24.00;63.10
27188;DHT22;14708;50.872;5.306;2023-10-13T16:06:25;24.10;63.40
27188;DHT22;14708;50.872;5.306;2023-10-13T16:08:52;24.10;63.50
27188;DHT22;14708;50.872;5.306;2023-10-13T16:11:18;24.10;63.60
27188;DHT22;14708;50.872;5.306;2023-10-13T16:13:44;24.10;63.40
27188;DHT22;14708;50.872;5.306;2023-10-13T16:16:17;24.10;63.40
27188;DHT22;14708;50.872;5.306;2023-10-13T16:18:43;24.20;63.40